Wetterstation Rossbuehl

Zugriff auf die letzten 10 Werte 30 Werte 100 Werte 400 Werte

Datum_____UhrzeitWind
Mittel
Wind
min
Wind
Boe
Wind
BoeTag
Wind
Richtung
Temp1
Feuchte Station Power
type
BatterieInter
vall
SMS
JJJJ-MM-TT hh:mmkm/hmin SpitzePeak Grad °C % ID Ex.oBat Volt min St.
2020-07-06 21:55 17 14 21 313 10.9 6 2 5.80 1
2020-07-06 21:40 18 12 26 305 11.1 15 2 5.77 1
2020-07-06 21:25 19 16 25 315 11.2 0 2 5.79 1
2020-07-06 21:10 18 17 19 288 11.9 8 2 5.77 1
2020-07-06 20:55 23 17 27 306 12.9 8 2 5.77 1
2020-07-06 20:40 14 11 16 304 13.1 10 2 5.79 1
2020-07-06 20:25 18 15 20 317 13 0 2 5.79 1
2020-07-06 20:10 14 11 16 299 12.2 12 2 5.79 1
2020-07-06 19:55 23 17 26 318 14.4 4 2 5.77 1
2020-07-06 19:40 25 19 31 299 14.6 0 2 5.79 1
2020-07-06 19:25 22 18 24 305 14.1 25 2 5.79 1
2020-07-06 19:10 17 14 19 294 14.5 6 2 5.77 1
2020-07-06 18:55 31 38 16 264 12.4 6 2 5.77 1
2020-07-06 18:40 29 37 26 299 15.6 4 2 5.76 1
2020-07-06 18:25 32 30 36 282 14.5 12 2 5.77 1
2020-07-06 18:10 20 17 25 286 12.5 6 2 5.80 1
2020-07-06 17:55 29 23 33 291 12.8 2 2 5.77 1
2020-07-06 17:40 24 20 30 257 13.4 12 2 5.79 1
2020-07-06 17:25 20 18 24 304 12.8 21 2 5.77 1
2020-07-06 17:10 32 37 33 283 14.1 2 2 5.77 1